sensor_id;sensor_type;location;lat;lon;timestamp;P1;durP1;ratioP1;P2;durP2;ratioP2
77123;SDS011;66079;47.646;19.130;2023-02-08T00:02:21;28.27;;;12.45;;
77123;SDS011;66079;47.646;19.130;2023-02-08T00:05:23;25.45;;;10.77;;
77123;SDS011;66079;47.646;19.130;2023-02-08T00:08:26;28.65;;;11.75;;
77123;SDS011;66079;47.646;19.130;2023-02-08T00:11:29;31.20;;;11.98;;
77123;SDS011;66079;47.646;19.130;2023-02-08T00:14:31;27.23;;;12.13;;
77123;SDS011;66079;47.646;19.130;2023-02-08T00:17:34;28.23;;;12.20;;
77123;SDS011;66079;47.646;19.130;2023-02-08T00:20:37;29.23;;;12.02;;
77123;SDS011;66079;47.646;19.130;2023-02-08T00:23:41;26.98;;;11.40;;
77123;SDS011;66079;47.646;19.130;2023-02-08T00:26:44;25.50;;;11.20;;
77123;SDS011;66079;47.646;19.130;2023-02-08T00:29:46;25.88;;;11.15;;
77123;SDS011;66079;47.646;19.130;2023-02-08T00:32:49;23.80;;;10.25;;
77123;SDS011;66079;47.646;19.130;2023-02-08T00:35:59;24.33;;;10.30;;
77123;SDS011;66079;47.646;19.130;2023-02-08T00:39:03;22.67;;;10.25;;
77123;SDS011;66079;47.646;19.130;2023-02-08T00:42:05;24.10;;;10.45;;
77123;SDS011;66079;47.646;19.130;2023-02-08T00:45:08;22.08;;;10.50;;
77123;SDS011;66079;47.646;19.130;2023-02-08T00:48:11;20.53;;;9.90;;
77123;SDS011;66079;47.646;19.130;2023-02-08T00:51:14;19.77;;;9.88;;
77123;SDS011;66079;47.646;19.130;2023-02-08T00:54:17;19.75;;;9.95;;
77123;SDS011;66079;47.646;19.130;2023-02-08T00:57:20;22.00;;;9.47;;
77123;SDS011;66079;47.646;19.130;2023-02-08T01:00:23;17.92;;;8.48;;
77123;SDS011;66079;47.646;19.130;2023-02-08T01:03:26;20.33;;;9.13;;
77123;SDS011;66079;47.646;19.130;2023-02-08T01:06:29;21.75;;;9.30;;
77123;SDS011;66079;47.646;19.130;2023-02-08T01:09:32;18.97;;;9.47;;
77123;SDS011;66079;47.646;19.130;2023-02-08T01:12:35;17.90;;;9.00;;
77123;SDS011;66079;47.646;19.130;2023-02-08T01:15:40;21.00;;;9.25;;
77123;SDS011;66079;47.646;19.130;2023-02-08T01:18:43;24.33;;;10.17;;
77123;SDS011;66079;47.646;19.130;2023-02-08T01:21:48;25.05;;;10.38;;
77123;SDS011;66079;47.646;19.130;2023-02-08T01:24:50;27.45;;;11.38;;
77123;SDS011;66079;47.646;19.130;2023-02-08T01:27:53;27.02;;;11.65;;
77123;SDS011;66079;47.646;19.130;2023-02-08T01:30:58;25.77;;;10.80;;
77123;SDS011;66079;47.646;19.130;2023-02-08T01:34:01;26.85;;;12.35;;
77123;SDS011;66079;47.646;19.130;2023-02-08T01:37:04;30.88;;;12.40;;
77123;SDS011;66079;47.646;19.130;2023-02-08T01:40:07;20.05;;;9.63;;
77123;SDS011;66079;47.646;19.130;2023-02-08T01:43:17;18.48;;;7.28;;
77123;SDS011;66079;47.646;19.130;2023-02-08T01:46:23;17.42;;;7.75;;
77123;SDS011;66079;47.646;19.130;2023-02-08T01:52:34;14.43;;;7.33;;
77123;SDS011;66079;47.646;19.130;2023-02-08T01:55:38;15.40;;;6.80;;
77123;SDS011;66079;47.646;19.130;2023-02-08T01:58:47;15.32;;;7.05;;
77123;SDS011;66079;47.646;19.130;2023-02-08T02:01:53;16.67;;;7.50;;
77123;SDS011;66079;47.646;19.130;2023-02-08T02:04:58;15.35;;;7.00;;
77123;SDS011;66079;47.646;19.130;2023-02-08T02:08:02;15.88;;;7.35;;
77123;SDS011;66079;47.646;19.130;2023-02-08T02:11:06;18.27;;;7.70;;
77123;SDS011;66079;47.646;19.130;2023-02-08T02:14:09;17.17;;;7.20;;
77123;SDS011;66079;47.646;19.130;2023-02-08T02:17:13;16.52;;;6.60;;
77123;SDS011;66079;47.646;19.130;2023-02-08T02:27:06;14.75;;;6.57;;
77123;SDS011;66079;47.646;19.130;2023-02-08T02:44:18;15.32;;;6.88;;
77123;SDS011;66079;47.646;19.130;2023-02-08T02:47:44;13.67;;;6.80;;
77123;SDS011;66079;47.646;19.130;2023-02-08T02:57:43;12.95;;;5.80;;
77123;SDS011;66079;47.646;19.130;2023-02-08T03:00:55;13.40;;;6.07;;
77123;SDS011;66079;47.646;19.130;2023-02-08T03:03:59;13.88;;;6.43;;
77123;SDS011;66079;47.646;19.130;2023-02-08T03:10:43;12.00;;;5.53;;
77123;SDS011;66079;47.646;19.130;2023-02-08T03:21:09;12.82;;;5.63;;
77123;SDS011;66079;47.646;19.130;2023-02-08T03:27:50;14.02;;;6.07;;
77123;SDS011;66079;47.646;19.130;2023-02-08T03:31:04;12.45;;;5.32;;
77123;SDS011;66079;47.646;19.130;2023-02-08T03:34:16;15.23;;;6.70;;
77123;SDS011;66079;47.646;19.130;2023-02-08T03:37:26;13.50;;;5.97;;
77123;SDS011;66079;47.646;19.130;2023-02-08T03:40:38;9.30;;;5.38;;
77123;SDS011;66079;47.646;19.130;2023-02-08T03:43:48;9.43;;;5.50;;
77123;SDS011;66079;47.646;19.130;2023-02-08T03:46:57;13.40;;;5.43;;
77123;SDS011;66079;47.646;19.130;2023-02-08T03:50:07;12.13;;;5.55;;
77123;SDS011;66079;47.646;19.130;2023-02-08T03:53:14;13.05;;;5.90;;
77123;SDS011;66079;47.646;19.130;2023-02-08T03:56:24;11.85;;;5.22;;
77123;SDS011;66079;47.646;19.130;2023-02-08T03:59:38;10.38;;;5.07;;
77123;SDS011;66079;47.646;19.130;2023-02-08T04:02:54;10.70;;;4.93;;
77123;SDS011;66079;47.646;19.130;2023-02-08T04:06:08;12.47;;;4.73;;
77123;SDS011;66079;47.646;19.130;2023-02-08T04:09:11;10.68;;;5.28;;
77123;SDS011;66079;47.646;19.130;2023-02-08T04:12:13;11.00;;;4.85;;
77123;SDS011;66079;47.646;19.130;2023-02-08T04:15:16;15.07;;;5.45;;
77123;SDS011;66079;47.646;19.130;2023-02-08T04:18:19;10.93;;;4.90;;
77123;SDS011;66079;47.646;19.130;2023-02-08T04:21:21;10.55;;;5.18;;
77123;SDS011;66079;47.646;19.130;2023-02-08T04:24:24;10.98;;;5.05;;
77123;SDS011;66079;47.646;19.130;2023-02-08T04:27:27;10.33;;;4.90;;
77123;SDS011;66079;47.646;19.130;2023-02-08T04:30:31;11.13;;;5.05;;
77123;SDS011;66079;47.646;19.130;2023-02-08T04:33:33;12.68;;;5.20;;
77123;SDS011;66079;47.646;19.130;2023-02-08T04:36:36;13.20;;;5.18;;
77123;SDS011;66079;47.646;19.130;2023-02-08T04:39:38;12.83;;;5.47;;
77123;SDS011;66079;47.646;19.130;2023-02-08T04:42:41;11.40;;;5.20;;
77123;SDS011;66079;47.646;19.130;2023-02-08T04:45:44;12.13;;;5.03;;
77123;SDS011;66079;47.646;19.130;2023-02-08T04:48:46;12.77;;;5.40;;
77123;SDS011;66079;47.646;19.130;2023-02-08T04:51:49;10.05;;;5.20;;
77123;SDS011;66079;47.646;19.130;2023-02-08T04:54:51;13.05;;;5.20;;
77123;SDS011;66079;47.646;19.130;2023-02-08T04:57:54;13.18;;;4.80;;
77123;SDS011;66079;47.646;19.130;2023-02-08T05:00:57;11.23;;;5.03;;
77123;SDS011;66079;47.646;19.130;2023-02-08T05:04:00;11.73;;;4.90;;
77123;SDS011;66079;47.646;19.130;2023-02-08T05:07:02;12.15;;;5.03;;
77123;SDS011;66079;47.646;19.130;2023-02-08T05:10:05;13.27;;;5.25;;
77123;SDS011;66079;47.646;19.130;2023-02-08T05:13:08;11.93;;;5.20;;
77123;SDS011;66079;47.646;19.130;2023-02-08T05:16:11;10.20;;;4.78;;
77123;SDS011;66079;47.646;19.130;2023-02-08T05:19:13;10.82;;;4.47;;
77123;SDS011;66079;47.646;19.130;2023-02-08T05:22:16;12.13;;;5.32;;
77123;SDS011;66079;47.646;19.130;2023-02-08T05:25:18;10.55;;;4.68;;
77123;SDS011;66079;47.646;19.130;2023-02-08T05:28:21;10.98;;;4.68;;
77123;SDS011;66079;47.646;19.130;2023-02-08T05:31:24;9.25;;;4.78;;
77123;SDS011;66079;47.646;19.130;2023-02-08T05:34:27;9.93;;;5.37;;
77123;SDS011;66079;47.646;19.130;2023-02-08T05:37:29;12.82;;;5.15;;
77123;SDS011;66079;47.646;19.130;2023-02-08T05:40:32;13.98;;;5.38;;
77123;SDS011;66079;47.646;19.130;2023-02-08T05:43:36;10.47;;;4.40;;
77123;SDS011;66079;47.646;19.130;2023-02-08T05:46:41;13.07;;;5.72;;
77123;SDS011;66079;47.646;19.130;2023-02-08T05:49:44;11.25;;;5.30;;
77123;SDS011;66079;47.646;19.130;2023-02-08T05:52:46;9.20;;;4.60;;
77123;SDS011;66079;47.646;19.130;2023-02-08T05:55:48;15.88;;;5.63;;
77123;SDS011;66079;47.646;19.130;2023-02-08T05:58:51;9.07;;;5.28;;
77123;SDS011;66079;47.646;19.130;2023-02-08T06:01:54;10.07;;;5.05;;
77123;SDS011;66079;47.646;19.130;2023-02-08T06:04:56;9.23;;;4.60;;
77123;SDS011;66079;47.646;19.130;2023-02-08T06:07:59;11.90;;;5.32;;
77123;SDS011;66079;47.646;19.130;2023-02-08T06:11:01;12.27;;;4.85;;
77123;SDS011;66079;47.646;19.130;2023-02-08T06:14:04;14.20;;;5.72;;
77123;SDS011;66079;47.646;19.130;2023-02-08T06:17:06;8.43;;;4.75;;
77123;SDS011;66079;47.646;19.130;2023-02-08T06:20:09;11.90;;;5.55;;
77123;SDS011;66079;47.646;19.130;2023-02-08T06:23:13;10.68;;;5.60;;
77123;SDS011;66079;47.646;19.130;2023-02-08T06:26:15;13.73;;;6.20;;
77123;SDS011;66079;47.646;19.130;2023-02-08T06:29:18;16.42;;;6.45;;
77123;SDS011;66079;47.646;19.130;2023-02-08T06:32:21;16.45;;;6.85;;
77123;SDS011;66079;47.646;19.130;2023-02-08T06:35:23;18.88;;;7.70;;
77123;SDS011;66079;47.646;19.130;2023-02-08T06:38:26;15.05;;;7.47;;
77123;SDS011;66079;47.646;19.130;2023-02-08T06:41:29;17.75;;;8.15;;
77123;SDS011;66079;47.646;19.130;2023-02-08T06:44:31;21.38;;;8.85;;
77123;SDS011;66079;47.646;19.130;2023-02-08T06:47:34;20.37;;;9.03;;
77123;SDS011;66079;47.646;19.130;2023-02-08T06:50:37;15.10;;;7.65;;
77123;SDS011;66079;47.646;19.130;2023-02-08T06:53:40;19.35;;;8.68;;
77123;SDS011;66079;47.646;19.130;2023-02-08T06:56:42;15.90;;;8.07;;
77123;SDS011;66079;47.646;19.130;2023-02-08T06:59:46;17.38;;;7.53;;
77123;SDS011;66079;47.646;19.130;2023-02-08T07:02:48;18.50;;;7.22;;
77123;SDS011;66079;47.646;19.130;2023-02-08T07:05:52;16.20;;;7.97;;
77123;SDS011;66079;47.646;19.130;2023-02-08T07:09:06;13.15;;;6.97;;
77123;SDS011;66079;47.646;19.130;2023-02-08T07:12:08;15.50;;;6.80;;
77123;SDS011;66079;47.646;19.130;2023-02-08T07:15:11;13.68;;;5.85;;
77123;SDS011;66079;47.646;19.130;2023-02-08T07:18:14;16.87;;;6.47;;
77123;SDS011;66079;47.646;19.130;2023-02-08T07:21:17;14.73;;;5.97;;
77123;SDS011;66079;47.646;19.130;2023-02-08T07:24:20;13.82;;;4.80;;
77123;SDS011;66079;47.646;19.130;2023-02-08T07:27:23;12.87;;;5.73;;
77123;SDS011;66079;47.646;19.130;2023-02-08T07:30:30;11.57;;;5.50;;
77123;SDS011;66079;47.646;19.130;2023-02-08T07:33:32;9.00;;;4.47;;
77123;SDS011;66079;47.646;19.130;2023-02-08T07:36:35;12.25;;;5.45;;
77123;SDS011;66079;47.646;19.130;2023-02-08T07:39:38;9.70;;;4.93;;
77123;SDS011;66079;47.646;19.130;2023-02-08T07:42:41;8.77;;;4.57;;
77123;SDS011;66079;47.646;19.130;2023-02-08T07:45:56;11.38;;;5.40;;
77123;SDS011;66079;47.646;19.130;2023-02-08T07:48:58;16.13;;;5.47;;
77123;SDS011;66079;47.646;19.130;2023-02-08T07:52:01;10.60;;;5.00;;
77123;SDS011;66079;47.646;19.130;2023-02-08T07:55:04;11.57;;;5.18;;
77123;SDS011;66079;47.646;19.130;2023-02-08T07:58:07;9.50;;;5.17;;
77123;SDS011;66079;47.646;19.130;2023-02-08T08:01:09;12.98;;;5.18;;
77123;SDS011;66079;47.646;19.130;2023-02-08T08:04:24;10.30;;;5.13;;
77123;SDS011;66079;47.646;19.130;2023-02-08T08:07:27;21.77;;;10.88;;
77123;SDS011;66079;47.646;19.130;2023-02-08T08:10:30;11.47;;;5.10;;
77123;SDS011;66079;47.646;19.130;2023-02-08T08:13:32;13.77;;;6.18;;
77123;SDS011;66079;47.646;19.130;2023-02-08T08:16:35;12.60;;;5.90;;
77123;SDS011;66079;47.646;19.130;2023-02-08T08:19:38;13.53;;;6.10;;
77123;SDS011;66079;47.646;19.130;2023-02-08T08:22:41;14.27;;;5.35;;
77123;SDS011;66079;47.646;19.130;2023-02-08T08:25:43;12.32;;;5.95;;
77123;SDS011;66079;47.646;19.130;2023-02-08T08:28:46;12.93;;;5.90;;
77123;SDS011;66079;47.646;19.130;2023-02-08T08:31:49;14.20;;;5.68;;
77123;SDS011;66079;47.646;19.130;2023-02-08T08:34:53;13.60;;;5.72;;
77123;SDS011;66079;47.646;19.130;2023-02-08T08:37:55;10.88;;;5.78;;
77123;SDS011;66079;47.646;19.130;2023-02-08T08:40:58;14.47;;;5.67;;
77123;SDS011;66079;47.646;19.130;2023-02-08T08:44:01;15.68;;;5.72;;
77123;SDS011;66079;47.646;19.130;2023-02-08T08:47:04;12.02;;;5.68;;
77123;SDS011;66079;47.646;19.130;2023-02-08T08:50:07;12.48;;;5.95;;
77123;SDS011;66079;47.646;19.130;2023-02-08T08:53:11;11.15;;;5.95;;
77123;SDS011;66079;47.646;19.130;2023-02-08T08:56:14;12.23;;;4.93;;
77123;SDS011;66079;47.646;19.130;2023-02-08T08:59:17;10.52;;;5.35;;
77123;SDS011;66079;47.646;19.130;2023-02-08T09:02:19;14.97;;;6.23;;
77123;SDS011;66079;47.646;19.130;2023-02-08T09:05:22;10.77;;;4.80;;
77123;SDS011;66079;47.646;19.130;2023-02-08T09:08:25;11.20;;;5.72;;
77123;SDS011;66079;47.646;19.130;2023-02-08T09:11:27;12.65;;;5.30;;
77123;SDS011;66079;47.646;19.130;2023-02-08T09:14:30;11.20;;;4.73;;
77123;SDS011;66079;47.646;19.130;2023-02-08T09:17:33;9.65;;;4.70;;
77123;SDS011;66079;47.646;19.130;2023-02-08T09:20:38;11.18;;;4.78;;
77123;SDS011;66079;47.646;19.130;2023-02-08T09:23:41;10.30;;;4.53;;
77123;SDS011;66079;47.646;19.130;2023-02-08T09:26:44;10.15;;;4.38;;
77123;SDS011;66079;47.646;19.130;2023-02-08T09:29:47;9.35;;;4.82;;
77123;SDS011;66079;47.646;19.130;2023-02-08T09:32:50;7.00;;;4.22;;
77123;SDS011;66079;47.646;19.130;2023-02-08T09:35:52;11.77;;;4.37;;
77123;SDS011;66079;47.646;19.130;2023-02-08T09:38:56;11.33;;;4.67;;
77123;SDS011;66079;47.646;19.130;2023-02-08T09:46:10;8.88;;;4.90;;
77123;SDS011;66079;47.646;19.130;2023-02-08T09:49:20;10.03;;;4.90;;
77123;SDS011;66079;47.646;19.130;2023-02-08T09:52:33;9.67;;;4.77;;
77123;SDS011;66079;47.646;19.130;2023-02-08T09:55:41;7.28;;;4.07;;
77123;SDS011;66079;47.646;19.130;2023-02-08T09:58:51;9.57;;;4.30;;
77123;SDS011;66079;47.646;19.130;2023-02-08T10:01:55;10.35;;;4.55;;
77123;SDS011;66079;47.646;19.130;2023-02-08T10:05:04;8.93;;;4.90;;
77123;SDS011;66079;47.646;19.130;2023-02-08T10:08:07;7.85;;;4.63;;
77123;SDS011;66079;47.646;19.130;2023-02-08T10:14:27;8.57;;;4.78;;
77123;SDS011;66079;47.646;19.130;2023-02-08T10:24:49;9.70;;;5.10;;
77123;SDS011;66079;47.646;19.130;2023-02-08T10:37:46;7.80;;;4.97;;
77123;SDS011;66079;47.646;19.130;2023-02-08T10:40:54;10.32;;;5.65;;
77123;SDS011;66079;47.646;19.130;2023-02-08T10:47:06;10.30;;;5.93;;
77123;SDS011;66079;47.646;19.130;2023-02-08T10:53:21;8.70;;;5.27;;
77123;SDS011;66079;47.646;19.130;2023-02-08T10:56:43;8.80;;;5.40;;
77123;SDS011;66079;47.646;19.130;2023-02-08T10:59:52;8.57;;;5.50;;
77123;SDS011;66079;47.646;19.130;2023-02-08T11:03:00;10.27;;;5.95;;
77123;SDS011;66079;47.646;19.130;2023-02-08T11:06:24;9.13;;;5.73;;
77123;SDS011;66079;47.646;19.130;2023-02-08T11:09:29;7.50;;;5.50;;
77123;SDS011;66079;47.646;19.130;2023-02-08T11:12:32;8.90;;;5.13;;
77123;SDS011;66079;47.646;19.130;2023-02-08T11:18:46;7.65;;;5.07;;
77123;SDS011;66079;47.646;19.130;2023-02-08T11:21:51;8.60;;;5.60;;
77123;SDS011;66079;47.646;19.130;2023-02-08T11:24:58;8.97;;;6.00;;
77123;SDS011;66079;47.646;19.130;2023-02-08T11:28:03;8.48;;;5.90;;
77123;SDS011;66079;47.646;19.130;2023-02-08T11:31:17;11.70;;;5.90;;
77123;SDS011;66079;47.646;19.130;2023-02-08T11:34:25;9.80;;;5.90;;
77123;SDS011;66079;47.646;19.130;2023-02-08T11:37:33;7.63;;;5.57;;
77123;SDS011;66079;47.646;19.130;2023-02-08T11:40:41;9.83;;;6.47;;
77123;SDS011;66079;47.646;19.130;2023-02-08T11:47:27;10.93;;;6.28;;
77123;SDS011;66079;47.646;19.130;2023-02-08T11:50:35;9.50;;;6.32;;
77123;SDS011;66079;47.646;19.130;2023-02-08T11:53:40;8.93;;;6.40;;
77123;SDS011;66079;47.646;19.130;2023-02-08T11:56:48;8.07;;;5.53;;
77123;SDS011;66079;47.646;19.130;2023-02-08T12:00:18;8.30;;;5.85;;
77123;SDS011;66079;47.646;19.130;2023-02-08T12:03:25;9.18;;;5.97;;
77123;SDS011;66079;47.646;19.130;2023-02-08T12:10:07;8.40;;;5.80;;
77123;SDS011;66079;47.646;19.130;2023-02-08T12:26:48;10.73;;;5.50;;
77123;SDS011;66079;47.646;19.130;2023-02-08T12:33:51;9.18;;;5.28;;
77123;SDS011;66079;47.646;19.130;2023-02-08T12:41:01;12.25;;;6.55;;
77123;SDS011;66079;47.646;19.130;2023-02-08T12:54:29;7.95;;;4.75;;
77123;SDS011;66079;47.646;19.130;2023-02-08T12:57:37;10.70;;;5.30;;
77123;SDS011;66079;47.646;19.130;2023-02-08T13:00:44;8.43;;;5.50;;
77123;SDS011;66079;47.646;19.130;2023-02-08T13:07:19;8.70;;;5.30;;
77123;SDS011;66079;47.646;19.130;2023-02-08T13:10:35;8.90;;;5.05;;
77123;SDS011;66079;47.646;19.130;2023-02-08T13:13:41;9.60;;;5.47;;
77123;SDS011;66079;47.646;19.130;2023-02-08T13:16:46;10.67;;;5.73;;
77123;SDS011;66079;47.646;19.130;2023-02-08T13:19:55;9.13;;;5.93;;
77123;SDS011;66079;47.646;19.130;2023-02-08T13:23:05;10.18;;;5.47;;
77123;SDS011;66079;47.646;19.130;2023-02-08T13:26:26;8.38;;;4.97;;
77123;SDS011;66079;47.646;19.130;2023-02-08T13:29:34;8.52;;;5.00;;
77123;SDS011;66079;47.646;19.130;2023-02-08T13:32:40;9.13;;;4.90;;
77123;SDS011;66079;47.646;19.130;2023-02-08T13:35:50;8.07;;;4.80;;
77123;SDS011;66079;47.646;19.130;2023-02-08T13:38:55;6.82;;;4.70;;
77123;SDS011;66079;47.646;19.130;2023-02-08T13:42:01;6.93;;;4.85;;
77123;SDS011;66079;47.646;19.130;2023-02-08T13:45:06;6.78;;;4.43;;
77123;SDS011;66079;47.646;19.130;2023-02-08T13:48:11;6.33;;;5.00;;
77123;SDS011;66079;47.646;19.130;2023-02-08T13:54:32;7.38;;;5.20;;
77123;SDS011;66079;47.646;19.130;2023-02-08T13:57:51;7.57;;;4.80;;
77123;SDS011;66079;47.646;19.130;2023-02-08T14:10:49;8.85;;;5.53;;
77123;SDS011;66079;47.646;19.130;2023-02-08T14:14:02;7.72;;;5.35;;
77123;SDS011;66079;47.646;19.130;2023-02-08T14:17:17;7.50;;;4.70;;
77123;SDS011;66079;47.646;19.130;2023-02-08T14:20:30;7.67;;;4.90;;
77123;SDS011;66079;47.646;19.130;2023-02-08T14:23:37;8.60;;;4.97;;
77123;SDS011;66079;47.646;19.130;2023-02-08T14:26:41;7.30;;;4.55;;
77123;SDS011;66079;47.646;19.130;2023-02-08T14:29:54;8.55;;;5.32;;
77123;SDS011;66079;47.646;19.130;2023-02-08T14:33:10;8.85;;;5.40;;
77123;SDS011;66079;47.646;19.130;2023-02-08T14:36:20;8.80;;;5.10;;
77123;SDS011;66079;47.646;19.130;2023-02-08T14:39:29;8.13;;;5.10;;
77123;SDS011;66079;47.646;19.130;2023-02-08T14:49:41;12.50;;;5.63;;
77123;SDS011;66079;47.646;19.130;2023-02-08T14:52:50;10.07;;;5.70;;
77123;SDS011;66079;47.646;19.130;2023-02-08T14:56:13;11.00;;;6.37;;
77123;SDS011;66079;47.646;19.130;2023-02-08T14:59:25;9.40;;;5.55;;
77123;SDS011;66079;47.646;19.130;2023-02-08T15:02:32;11.13;;;5.85;;
77123;SDS011;66079;47.646;19.130;2023-02-08T15:05:40;10.10;;;5.80;;
77123;SDS011;66079;47.646;19.130;2023-02-08T15:08:55;12.43;;;6.13;;
77123;SDS011;66079;47.646;19.130;2023-02-08T15:11:59;11.03;;;5.60;;
77123;SDS011;66079;47.646;19.130;2023-02-08T15:15:04;12.18;;;5.55;;
77123;SDS011;66079;47.646;19.130;2023-02-08T15:18:17;9.88;;;5.63;;
77123;SDS011;66079;47.646;19.130;2023-02-08T15:21:26;12.25;;;5.97;;
77123;SDS011;66079;47.646;19.130;2023-02-08T15:24:31;10.63;;;6.10;;
77123;SDS011;66079;47.646;19.130;2023-02-08T15:27:33;13.30;;;6.70;;
77123;SDS011;66079;47.646;19.130;2023-02-08T15:30:37;15.27;;;7.03;;
77123;SDS011;66079;47.646;19.130;2023-02-08T15:33:40;14.98;;;7.57;;
77123;SDS011;66079;47.646;19.130;2023-02-08T15:36:48;16.17;;;7.40;;
77123;SDS011;66079;47.646;19.130;2023-02-08T15:39:54;14.93;;;7.67;;
77123;SDS011;66079;47.646;19.130;2023-02-08T15:46:14;18.30;;;7.95;;
77123;SDS011;66079;47.646;19.130;2023-02-08T15:49:31;21.05;;;9.18;;
77123;SDS011;66079;47.646;19.130;2023-02-08T15:52:39;17.30;;;9.13;;
77123;SDS011;66079;47.646;19.130;2023-02-08T15:55:49;21.73;;;9.40;;
77123;SDS011;66079;47.646;19.130;2023-02-08T15:58:56;22.27;;;9.68;;
77123;SDS011;66079;47.646;19.130;2023-02-08T16:02:20;24.30;;;9.45;;
77123;SDS011;66079;47.646;19.130;2023-02-08T16:05:25;25.48;;;10.07;;
77123;SDS011;66079;47.646;19.130;2023-02-08T16:08:31;26.67;;;10.10;;
77123;SDS011;66079;47.646;19.130;2023-02-08T16:11:41;21.52;;;9.82;;
77123;SDS011;66079;47.646;19.130;2023-02-08T16:14:50;19.80;;;9.27;;
77123;SDS011;66079;47.646;19.130;2023-02-08T16:17:57;18.45;;;8.95;;
77123;SDS011;66079;47.646;19.130;2023-02-08T16:21:00;17.73;;;9.00;;
77123;SDS011;66079;47.646;19.130;2023-02-08T16:27:28;27.55;;;8.68;;
77123;SDS011;66079;47.646;19.130;2023-02-08T16:30:32;24.10;;;8.77;;
77123;SDS011;66079;47.646;19.130;2023-02-08T16:33:35;19.23;;;8.30;;
77123;SDS011;66079;47.646;19.130;2023-02-08T16:36:42;16.83;;;8.10;;
77123;SDS011;66079;47.646;19.130;2023-02-08T16:42:49;15.30;;;7.93;;
77123;SDS011;66079;47.646;19.130;2023-02-08T16:49:13;16.23;;;8.52;;
77123;SDS011;66079;47.646;19.130;2023-02-08T16:52:16;19.63;;;9.13;;
77123;SDS011;66079;47.646;19.130;2023-02-08T16:55:20;27.57;;;12.80;;
77123;SDS011;66079;47.646;19.130;2023-02-08T16:58:26;30.07;;;13.63;;
77123;SDS011;66079;47.646;19.130;2023-02-08T17:01:28;25.67;;;11.50;;
77123;SDS011;66079;47.646;19.130;2023-02-08T17:04:31;23.17;;;9.45;;
77123;SDS011;66079;47.646;19.130;2023-02-08T17:07:35;16.57;;;8.03;;
77123;SDS011;66079;47.646;19.130;2023-02-08T17:10:39;17.70;;;7.85;;
77123;SDS011;66079;47.646;19.130;2023-02-08T17:13:44;15.75;;;7.82;;
77123;SDS011;66079;47.646;19.130;2023-02-08T17:16:46;15.93;;;8.30;;
77123;SDS011;66079;47.646;19.130;2023-02-08T17:19:49;17.20;;;8.07;;
77123;SDS011;66079;47.646;19.130;2023-02-08T17:22:53;20.95;;;9.15;;
77123;SDS011;66079;47.646;19.130;2023-02-08T17:25:57;23.73;;;10.15;;
77123;SDS011;66079;47.646;19.130;2023-02-08T17:29:00;21.27;;;10.18;;
77123;SDS011;66079;47.646;19.130;2023-02-08T17:32:02;21.37;;;9.87;;
77123;SDS011;66079;47.646;19.130;2023-02-08T17:35:05;23.30;;;10.02;;
77123;SDS011;66079;47.646;19.130;2023-02-08T17:38:08;20.75;;;9.23;;
77123;SDS011;66079;47.646;19.130;2023-02-08T17:41:13;19.15;;;9.57;;
77123;SDS011;66079;47.646;19.130;2023-02-08T17:44:18;18.88;;;8.95;;
77123;SDS011;66079;47.646;19.130;2023-02-08T17:47:22;23.85;;;9.90;;
77123;SDS011;66079;47.646;19.130;2023-02-08T17:50:25;19.38;;;9.60;;
77123;SDS011;66079;47.646;19.130;2023-02-08T17:53:29;30.63;;;10.60;;
77123;SDS011;66079;47.646;19.130;2023-02-08T17:56:32;21.15;;;10.13;;
77123;SDS011;66079;47.646;19.130;2023-02-08T17:59:40;25.30;;;10.45;;
77123;SDS011;66079;47.646;19.130;2023-02-08T18:02:50;21.83;;;9.75;;
77123;SDS011;66079;47.646;19.130;2023-02-08T18:05:55;20.60;;;9.57;;
77123;SDS011;66079;47.646;19.130;2023-02-08T18:08:58;20.17;;;9.68;;
77123;SDS011;66079;47.646;19.130;2023-02-08T18:12:01;20.45;;;9.75;;
77123;SDS011;66079;47.646;19.130;2023-02-08T18:15:05;21.70;;;9.90;;
77123;SDS011;66079;47.646;19.130;2023-02-08T18:18:09;20.70;;;8.90;;
77123;SDS011;66079;47.646;19.130;2023-02-08T18:21:14;19.25;;;8.65;;
77123;SDS011;66079;47.646;19.130;2023-02-08T18:24:18;20.55;;;9.65;;
77123;SDS011;66079;47.646;19.130;2023-02-08T18:27:21;23.97;;;9.57;;
77123;SDS011;66079;47.646;19.130;2023-02-08T18:30:28;22.70;;;9.45;;
77123;SDS011;66079;47.646;19.130;2023-02-08T18:33:31;20.30;;;8.95;;
77123;SDS011;66079;47.646;19.130;2023-02-08T18:36:34;20.63;;;9.32;;
77123;SDS011;66079;47.646;19.130;2023-02-08T18:39:37;17.60;;;9.00;;
77123;SDS011;66079;47.646;19.130;2023-02-08T18:42:40;19.70;;;8.77;;
77123;SDS011;66079;47.646;19.130;2023-02-08T18:45:43;20.27;;;8.95;;
77123;SDS011;66079;47.646;19.130;2023-02-08T18:48:47;17.23;;;9.20;;
77123;SDS011;66079;47.646;19.130;2023-02-08T18:51:51;19.38;;;9.52;;
77123;SDS011;66079;47.646;19.130;2023-02-08T18:54:54;17.92;;;9.02;;
77123;SDS011;66079;47.646;19.130;2023-02-08T18:57:58;22.95;;;9.93;;
77123;SDS011;66079;47.646;19.130;2023-02-08T19:01:03;23.70;;;9.77;;
77123;SDS011;66079;47.646;19.130;2023-02-08T19:04:08;21.80;;;8.93;;
77123;SDS011;66079;47.646;19.130;2023-02-08T19:07:11;20.85;;;9.52;;
77123;SDS011;66079;47.646;19.130;2023-02-08T19:10:14;23.38;;;9.85;;
77123;SDS011;66079;47.646;19.130;2023-02-08T19:13:17;22.70;;;10.77;;
77123;SDS011;66079;47.646;19.130;2023-02-08T19:16:20;22.05;;;9.48;;
77123;SDS011;66079;47.646;19.130;2023-02-08T19:19:26;24.23;;;11.15;;
77123;SDS011;66079;47.646;19.130;2023-02-08T19:22:29;25.90;;;10.07;;
77123;SDS011;66079;47.646;19.130;2023-02-08T19:25:35;23.38;;;9.60;;
77123;SDS011;66079;47.646;19.130;2023-02-08T19:28:40;22.98;;;10.15;;
77123;SDS011;66079;47.646;19.130;2023-02-08T19:31:43;23.38;;;11.20;;
77123;SDS011;66079;47.646;19.130;2023-02-08T19:34:46;25.42;;;10.88;;
77123;SDS011;66079;47.646;19.130;2023-02-08T19:37:49;27.45;;;10.80;;
77123;SDS011;66079;47.646;19.130;2023-02-08T19:40:54;24.15;;;10.05;;
77123;SDS011;66079;47.646;19.130;2023-02-08T19:43:57;22.30;;;9.30;;
77123;SDS011;66079;47.646;19.130;2023-02-08T19:47:01;18.95;;;8.23;;
77123;SDS011;66079;47.646;19.130;2023-02-08T19:50:04;17.85;;;8.50;;
77123;SDS011;66079;47.646;19.130;2023-02-08T19:53:08;22.02;;;8.93;;
77123;SDS011;66079;47.646;19.130;2023-02-08T19:56:12;19.35;;;9.00;;
77123;SDS011;66079;47.646;19.130;2023-02-08T19:59:17;19.73;;;8.88;;
77123;SDS011;66079;47.646;19.130;2023-02-08T20:02:22;21.45;;;9.63;;
77123;SDS011;66079;47.646;19.130;2023-02-08T20:05:28;20.50;;;9.17;;
77123;SDS011;66079;47.646;19.130;2023-02-08T20:08:32;21.75;;;9.65;;
77123;SDS011;66079;47.646;19.130;2023-02-08T20:11:36;26.40;;;10.35;;
77123;SDS011;66079;47.646;19.130;2023-02-08T20:14:57;59.80;;;23.43;;
77123;SDS011;66079;47.646;19.130;2023-02-08T20:18:00;70.10;;;27.88;;
77123;SDS011;66079;47.646;19.130;2023-02-08T20:21:06;78.53;;;32.63;;
77123;SDS011;66079;47.646;19.130;2023-02-08T20:24:09;59.75;;;25.60;;
77123;SDS011;66079;47.646;19.130;2023-02-08T20:27:12;43.97;;;20.00;;
77123;SDS011;66079;47.646;19.130;2023-02-08T20:30:20;41.70;;;18.77;;
77123;SDS011;66079;47.646;19.130;2023-02-08T20:33:23;38.10;;;17.60;;
77123;SDS011;66079;47.646;19.130;2023-02-08T20:36:27;36.80;;;16.37;;
77123;SDS011;66079;47.646;19.130;2023-02-08T20:39:33;38.58;;;16.92;;
77123;SDS011;66079;47.646;19.130;2023-02-08T20:42:37;35.95;;;17.08;;